createdAt,value
2018-03-15T00:01:58.295Z,16.33
2018-03-15T00:04:25.800Z,13.47
2018-03-15T00:06:53.272Z,19.67
2018-03-15T00:09:21.520Z,23.50
2018-03-15T00:11:48.992Z,19.40
2018-03-15T00:14:16.480Z,22.27
2018-03-15T00:16:43.952Z,13.53
2018-03-15T00:19:11.445Z,19.90
2018-03-15T00:21:39.689Z,18.73
2018-03-15T00:24:07.173Z,18.63
2018-03-15T00:26:34.657Z,18.13
2018-03-15T00:29:02.142Z,23.60
2018-03-15T00:31:30.384Z,15.13
2018-03-15T00:33:57.863Z,16.73
2018-03-15T00:36:25.341Z,15.37
2018-03-15T00:38:52.822Z,17.27
2018-03-15T00:41:20.313Z,16.03
2018-03-15T00:43:47.784Z,16.27
2018-03-15T00:46:16.029Z,17.77
2018-03-15T00:48:43.509Z,17.30
2018-03-15T00:51:10.998Z,16.63
2018-03-15T00:53:38.476Z,20.43
2018-03-15T00:56:06.712Z,20.70
2018-03-15T00:58:34.197Z,16.33
2018-03-15T01:01:01.677Z,17.93
2018-03-15T01:03:29.227Z,17.43
2018-03-15T01:05:56.763Z,26.97
2018-03-15T01:08:24.291Z,18.10
2018-03-15T01:10:51.816Z,15.43
2018-03-15T01:13:19.351Z,16.20
2018-03-15T01:15:46.897Z,13.80
2018-03-15T01:18:14.437Z,19.17
2018-03-15T01:20:42.025Z,19.87
2018-03-15T01:23:09.578Z,16.93
2018-03-15T01:25:37.073Z,19.10
2018-03-15T01:28:04.618Z,18.00
2018-03-15T01:30:32.145Z,17.60
2018-03-15T01:32:59.729Z,17.13
2018-03-15T01:35:27.992Z,15.83
2018-03-15T01:37:55.528Z,22.73
2018-03-15T01:40:23.089Z,19.07
2018-03-15T01:42:50.615Z,20.83
2018-03-15T01:45:18.144Z,22.10
2018-03-15T01:47:45.685Z,16.70
2018-03-15T01:50:13.986Z,17.07
2018-03-15T01:52:41.500Z,19.00
2018-03-15T01:55:09.022Z,21.67
2018-03-15T01:57:36.565Z,21.17
2018-03-15T02:00:04.048Z,20.07
2018-03-15T02:02:32.284Z,24.67
2018-03-15T02:04:59.768Z,20.40
2018-03-15T02:07:27.265Z,22.50
2018-03-15T02:09:54.749Z,19.63
2018-03-15T02:12:22.988Z,20.33
2018-03-15T02:14:50.473Z,19.60
2018-03-15T02:17:17.948Z,23.03
2018-03-15T02:19:45.433Z,21.93
2018-03-15T02:22:12.905Z,19.80
2018-03-15T02:24:41.156Z,18.17
2018-03-15T02:27:09.394Z,20.90
2018-03-15T02:29:37.644Z,20.07
2018-03-15T02:32:05.121Z,17.80
2018-03-15T02:34:32.595Z,15.23
2018-03-15T02:37:00.077Z,19.53
2018-03-15T02:39:27.568Z,25.83
2018-03-15T02:41:55.804Z,23.23
2018-03-15T02:44:23.309Z,21.17
2018-03-15T02:46:50.772Z,19.77
2018-03-15T02:49:18.264Z,19.37
2018-03-15T02:51:46.508Z,18.33
2018-03-15T02:54:13.993Z,18.03
2018-03-15T02:56:41.468Z,17.97
2018-03-15T02:59:08.948Z,23.07
2018-03-15T03:01:37.194Z,19.13
2018-03-15T03:04:04.669Z,21.33
2018-03-15T03:06:32.144Z,13.80
2018-03-15T03:08:59.615Z,20.80
2018-03-15T03:11:27.103Z,14.93
2018-03-15T03:13:54.588Z,16.60
2018-03-15T03:16:22.837Z,18.97
2018-03-15T03:18:50.320Z,19.60
2018-03-15T03:21:17.791Z,19.90
2018-03-15T03:23:45.284Z,20.53
2018-03-15T03:26:13.533Z,19.37
2018-03-15T03:28:41.016Z,18.63
2018-03-15T03:31:08.516Z,37.57
2018-03-15T03:33:36.752Z,14.30
2018-03-15T03:39:05.316Z,17.80
2018-03-15T03:41:32.788Z,19.50
2018-03-15T03:44:00.277Z,61.07
2018-03-15T03:46:28.526Z,61.30
2018-03-15T03:48:55.996Z,22.50
2018-03-15T03:51:23.477Z,15.53
2018-03-15T03:53:50.968Z,86.30
2018-03-15T03:56:19.236Z,28.20
2018-03-15T03:58:46.709Z,35.47
2018-03-15T04:01:14.191Z,70.27
2018-03-15T04:09:46.393Z,14.37
2018-03-15T04:12:13.869Z,75.00
2018-03-15T04:14:41.356Z,31.47
2018-03-15T04:17:08.822Z,29.63
2018-03-15T04:19:36.312Z,24.37
2018-03-15T04:22:03.787Z,23.50
2018-03-15T04:24:31.268Z,24.43
2018-03-15T04:26:59.517Z,23.60
2018-03-15T04:29:27.003Z,25.50
2018-03-15T04:31:54.475Z,59.83
2018-03-15T04:34:21.960Z,39.53
2018-03-15T04:36:50.204Z,38.97
2018-03-15T04:39:17.689Z,47.57
2018-03-15T04:41:45.161Z,36.70
2018-03-15T04:44:12.644Z,16.43
2018-03-15T04:46:40.120Z,34.03
2018-03-15T04:49:07.591Z,17.57
2018-03-15T04:51:35.844Z,31.80
2018-03-15T04:54:03.323Z,17.03
2018-03-15T04:56:30.802Z,19.30
2018-03-15T04:58:58.288Z,20.63
2018-03-15T05:01:25.773Z,27.93
2018-03-15T05:04:03.848Z,27.80
2018-03-15T05:06:31.336Z,34.80
2018-03-15T05:08:58.808Z,56.67
2018-03-15T05:11:26.297Z,45.03
2018-03-15T05:13:54.784Z,31.13
2018-03-15T05:16:23.023Z,46.07
2018-03-15T05:18:50.506Z,28.67
2018-03-15T05:21:17.978Z,23.90
2018-03-15T05:23:45.452Z,34.13
2018-03-15T05:26:12.936Z,31.97
2018-03-15T05:28:41.197Z,25.00
2018-03-15T05:31:08.680Z,17.90
2018-03-15T05:33:36.164Z,26.23
2018-03-15T05:36:03.639Z,29.77
2018-03-15T05:38:31.120Z,21.57
2018-03-15T05:41:02.398Z,20.47
2018-03-15T05:43:29.877Z,21.53
2018-03-15T05:51:43.193Z,37.60
2018-03-15T05:54:10.700Z,30.37
2018-03-15T05:56:38.272Z,26.40
2018-03-15T05:59:05.802Z,24.53
2018-03-15T06:01:33.369Z,21.87
2018-03-15T06:04:00.891Z,21.33
2018-03-15T06:06:41.537Z,15.00
2018-03-15T06:09:09.064Z,23.90
2018-03-15T06:11:37.403Z,23.73
2018-03-15T06:14:04.918Z,20.70
2018-03-15T06:16:32.517Z,23.70
2018-03-15T06:19:04.246Z,21.17
2018-03-15T06:21:31.788Z,23.23
2018-03-15T06:23:59.391Z,22.50
2018-03-15T06:26:26.956Z,24.27
2018-03-15T06:28:54.488Z,19.37
2018-03-15T06:31:22.010Z,15.37
2018-03-15T06:33:49.556Z,23.13
2018-03-15T06:36:17.857Z,19.20
2018-03-15T06:38:45.382Z,15.50
2018-03-15T06:41:12.917Z,23.43
2018-03-15T06:43:40.450Z,22.47
2018-03-15T06:46:07.981Z,20.27
2018-03-15T06:48:36.333Z,21.67
2018-03-15T06:51:03.862Z,17.53
2018-03-15T06:53:31.456Z,18.00
2018-03-15T06:55:58.981Z,19.10
2018-03-15T06:58:27.236Z,20.77
2018-03-15T07:00:55.699Z,16.23
2018-03-15T07:03:23.225Z,16.87
2018-03-15T07:05:52.558Z,19.57
2018-03-15T07:08:20.828Z,18.97
2018-03-15T07:10:49.118Z,16.23
2018-03-15T07:13:17.411Z,15.90
2018-03-15T07:15:45.722Z,18.80
2018-03-15T07:18:13.250Z,21.43
2018-03-15T07:23:14.912Z,13.63
2018-03-15T07:25:42.429Z,28.17
2018-03-15T07:28:09.935Z,14.33
2018-03-15T07:30:37.444Z,10.73
2018-03-15T07:33:20.237Z,12.93
2018-03-15T07:35:48.582Z,10.90
2018-03-15T07:38:16.088Z,10.50
2018-03-15T07:40:43.710Z,14.90
2018-03-15T07:43:11.256Z,13.33
2018-03-15T07:45:38.781Z,13.97
2018-03-15T07:48:06.293Z,9.17
2018-03-15T07:50:33.821Z,11.80
2018-03-15T07:53:02.113Z,12.03
2018-03-15T07:55:29.650Z,12.73
2018-03-15T07:57:57.282Z,13.50
2018-03-15T08:00:25.714Z,12.90
2018-03-15T08:02:53.212Z,11.57
2018-03-15T08:05:21.467Z,9.87
2018-03-15T08:07:48.980Z,9.63
2018-03-15T08:10:16.491Z,7.67
2018-03-15T08:12:44.034Z,11.87
2018-03-15T08:15:11.556Z,10.10
2018-03-15T08:17:39.062Z,11.87
2018-03-15T08:20:06.585Z,11.27
2018-03-15T08:22:34.139Z,13.47
2018-03-15T08:25:01.646Z,8.53
2018-03-15T08:27:29.160Z,12.20
2018-03-15T08:29:56.665Z,10.60
2018-03-15T08:32:24.194Z,11.03
2018-03-15T08:34:51.719Z,9.37
2018-03-15T08:37:19.236Z,10.07
2018-03-15T08:39:46.772Z,10.33
2018-03-15T08:42:14.305Z,11.17
2018-03-15T08:44:41.869Z,11.57
2018-03-15T08:47:09.385Z,10.60
2018-03-15T08:49:36.908Z,9.73
2018-03-15T08:52:04.438Z,9.97
2018-03-15T08:54:32.737Z,10.83
2018-03-15T08:57:00.245Z,10.70
2018-03-15T08:59:27.757Z,11.43
2018-03-15T09:01:55.270Z,11.47
2018-03-15T09:04:22.795Z,11.30
2018-03-15T09:06:50.463Z,9.37
2018-03-15T09:09:17.988Z,10.90
2018-03-15T09:11:45.510Z,10.07
2018-03-15T09:14:13.037Z,10.23
2018-03-15T09:16:40.562Z,11.67
2018-03-15T09:19:08.845Z,10.50
2018-03-15T09:21:36.423Z,9.97
2018-03-15T09:24:03.922Z,11.07
2018-03-15T09:26:31.486Z,12.17
2018-03-15T09:28:59.830Z,10.87
2018-03-15T09:31:27.291Z,12.13
2018-03-15T09:33:54.886Z,9.80
2018-03-15T09:36:22.436Z,10.67
2018-03-15T09:38:49.942Z,10.33
2018-03-15T09:41:18.228Z,9.00
2018-03-15T09:43:46.526Z,10.73
2018-03-15T09:46:14.083Z,10.00
2018-03-15T09:48:41.607Z,12.40
2018-03-15T09:51:09.168Z,12.43
2018-03-15T09:53:36.694Z,11.83
2018-03-15T09:56:04.196Z,9.97
2018-03-15T09:58:31.833Z,9.80
2018-03-15T10:00:59.357Z,14.67
2018-03-15T10:03:26.884Z,10.53
2018-03-15T10:05:56.031Z,9.30
2018-03-15T10:08:25.619Z,10.37
2018-03-15T10:10:53.930Z,9.97
2018-03-15T10:13:21.486Z,11.07
2018-03-15T10:15:49.775Z,10.53
2018-03-15T10:18:18.070Z,9.90
2018-03-15T10:20:45.614Z,12.90
2018-03-15T10:23:13.885Z,11.40
2018-03-15T10:25:41.431Z,10.87
2018-03-15T10:28:08.965Z,12.30
2018-03-15T10:30:37.254Z,10.60
2018-03-15T10:33:11.211Z,11.97
2018-03-15T10:35:38.733Z,11.83
2018-03-15T10:38:06.248Z,11.07
2018-03-15T10:40:33.778Z,11.43
2018-03-15T10:43:02.116Z,10.27
2018-03-15T10:45:29.663Z,10.00
2018-03-15T10:47:57.206Z,11.93
2018-03-15T10:50:24.689Z,10.57
2018-03-15T10:52:53.003Z,10.20
2018-03-15T10:55:20.528Z,11.83
2018-03-15T10:57:48.070Z,12.23
2018-03-15T11:00:16.372Z,10.47
2018-03-15T11:02:46.836Z,11.70
2018-03-15T11:05:20.735Z,10.37
2018-03-15T11:07:54.008Z,12.07
2018-03-15T11:10:21.560Z,12.50
2018-03-15T11:12:49.107Z,10.47
2018-03-15T11:15:17.412Z,10.17
2018-03-15T11:17:45.703Z,10.57
2018-03-15T11:20:13.986Z,8.83
2018-03-15T11:22:41.496Z,13.77
2018-03-15T11:25:09.037Z,11.40
2018-03-15T11:27:36.551Z,11.50
2018-03-15T11:30:04.089Z,14.90
2018-03-15T11:32:31.610Z,11.80
2018-03-15T11:34:59.134Z,12.90
2018-03-15T11:37:26.696Z,12.80
2018-03-15T11:39:54.602Z,10.67
2018-03-15T11:42:22.119Z,8.70
2018-03-15T11:44:49.641Z,11.13
2018-03-15T11:47:17.249Z,10.10
2018-03-15T11:49:44.803Z,9.10
2018-03-15T11:52:13.069Z,10.70
2018-03-15T11:54:40.565Z,11.90
2018-03-15T11:57:08.110Z,10.90
2018-03-15T11:59:35.758Z,9.33
2018-03-15T12:02:03.301Z,13.50
2018-03-15T12:04:30.857Z,9.20
2018-03-15T12:06:58.382Z,9.97
2018-03-15T12:09:25.912Z,10.10
2018-03-15T12:11:53.478Z,12.57
2018-03-15T12:14:21.069Z,8.97
2018-03-15T12:16:48.605Z,10.47
2018-03-15T12:19:16.152Z,8.83
2018-03-15T12:21:43.662Z,9.03
2018-03-15T12:24:11.202Z,10.23
2018-03-15T12:26:38.722Z,11.10
2018-03-15T12:29:06.308Z,9.43
2018-03-15T12:31:34.592Z,8.50
2018-03-15T12:34:02.874Z,8.47
2018-03-15T12:36:30.395Z,8.77
2018-03-15T12:38:57.941Z,9.63
2018-03-15T12:41:25.510Z,9.13
2018-03-15T12:43:53.026Z,11.33
2018-03-15T12:46:20.554Z,10.60
2018-03-15T12:48:48.061Z,9.37
2018-03-15T12:51:15.572Z,8.87
2018-03-15T12:53:43.864Z,6.93
2018-03-15T12:56:12.132Z,10.03
2018-03-15T12:58:39.637Z,7.80
2018-03-15T13:01:07.928Z,10.63
2018-03-15T13:03:35.468Z,9.43
2018-03-15T13:06:02.990Z,9.40
2018-03-15T13:08:30.516Z,9.43
2018-03-15T13:10:58.057Z,8.03
2018-03-15T13:13:25.649Z,6.13
2018-03-15T13:15:53.238Z,7.33
2018-03-15T13:18:21.543Z,8.53
2018-03-15T13:20:49.814Z,7.77
2018-03-15T13:23:17.354Z,8.93
2018-03-15T13:25:44.869Z,7.27
2018-03-15T13:28:12.394Z,7.80
2018-03-15T13:30:39.910Z,5.70
2018-03-15T13:33:08.184Z,6.43
2018-03-15T13:35:35.702Z,7.30
2018-03-15T13:38:03.277Z,4.97
2018-03-15T13:40:30.785Z,6.73
2018-03-15T13:42:58.313Z,7.33
2018-03-15T13:45:25.833Z,7.57
2018-03-15T13:47:53.361Z,8.20
2018-03-15T13:50:20.882Z,7.97
2018-03-15T13:52:48.471Z,6.73
2018-03-15T13:55:16.783Z,6.87
2018-03-15T13:57:44.325Z,7.93
2018-03-15T14:00:12.576Z,7.50
2018-03-15T14:02:40.164Z,8.27
2018-03-15T14:05:07.682Z,5.53
2018-03-15T14:07:35.392Z,7.97
2018-03-15T14:10:02.925Z,9.77
2018-03-15T14:12:30.436Z,7.07
2018-03-15T14:14:58.008Z,8.50
2018-03-15T14:17:25.636Z,8.17
2018-03-15T14:19:53.141Z,9.30
2018-03-15T14:22:20.673Z,9.37
2018-03-15T14:24:48.182Z,11.20
2018-03-15T14:27:15.826Z,9.87
2018-03-15T14:29:44.506Z,7.77
2018-03-15T14:32:12.699Z,8.73
2018-03-15T14:34:40.179Z,9.13
2018-03-15T14:37:07.682Z,8.10
2018-03-15T14:39:35.213Z,8.53
2018-03-15T14:42:03.873Z,8.20
2018-03-15T14:44:32.193Z,6.73
2018-03-15T14:47:00.506Z,8.43
2018-03-15T14:49:28.103Z,14.00
2018-03-15T14:51:55.631Z,13.40
2018-03-15T14:54:23.185Z,8.07
2018-03-15T14:56:50.715Z,7.80
2018-03-15T14:59:19.010Z,11.10
2018-03-15T15:01:47.518Z,8.83
2018-03-15T15:04:15.083Z,6.23
2018-03-15T15:06:42.610Z,8.13
2018-03-15T15:09:10.146Z,9.07
2018-03-15T15:11:37.629Z,12.83
2018-03-15T15:14:05.948Z,8.47
2018-03-15T15:16:33.456Z,9.17
2018-03-15T15:19:00.990Z,8.30
2018-03-15T15:21:28.934Z,6.57
2018-03-15T15:23:56.513Z,10.60
2018-03-15T15:26:24.063Z,9.13
2018-03-15T15:28:51.601Z,8.83
2018-03-15T15:31:19.940Z,7.47
2018-03-15T15:33:47.555Z,8.87
2018-03-15T15:36:15.078Z,7.90
2018-03-15T15:38:42.605Z,6.57
2018-03-15T15:41:10.108Z,8.13
2018-03-15T15:43:37.629Z,8.47
2018-03-15T15:46:05.183Z,9.03
2018-03-15T15:48:33.474Z,8.43
2018-03-15T15:51:01.770Z,7.00
2018-03-15T15:53:29.317Z,8.30
2018-03-15T15:55:57.618Z,8.40
2018-03-15T15:58:25.966Z,7.80
2018-03-15T16:00:53.487Z,8.33
2018-03-15T16:03:20.998Z,8.73
2018-03-15T16:05:48.516Z,10.23
2018-03-15T16:08:16.809Z,8.70
2018-03-15T16:10:45.173Z,7.60
2018-03-15T16:13:12.698Z,8.00
2018-03-15T16:15:40.287Z,8.00
2018-03-15T16:18:07.812Z,9.53
2018-03-15T16:20:36.164Z,7.03
2018-03-15T16:23:03.657Z,9.53
2018-03-15T16:25:31.961Z,9.30
2018-03-15T16:28:00.240Z,9.57
2018-03-15T16:30:28.569Z,11.10
2018-03-15T16:32:56.084Z,9.73
2018-03-15T16:35:23.626Z,10.27
2018-03-15T16:37:51.401Z,10.40
2018-03-15T16:40:18.914Z,13.77
2018-03-15T16:42:46.453Z,18.20
2018-03-15T16:45:13.978Z,17.17
2018-03-15T16:47:41.513Z,10.73
2018-03-15T16:50:09.022Z,9.57
2018-03-15T16:52:36.542Z,12.57
2018-03-15T16:55:04.060Z,9.17
2018-03-15T16:57:32.336Z,11.00
2018-03-15T17:00:00.667Z,7.83
2018-03-15T17:02:28.991Z,10.23
2018-03-15T17:04:56.510Z,9.90
2018-03-15T17:07:24.293Z,12.50
2018-03-15T17:09:55.352Z,8.93
2018-03-15T17:12:22.837Z,9.20
2018-03-15T17:14:50.360Z,10.73
2018-03-15T17:17:18.695Z,10.47
2018-03-15T17:19:46.243Z,11.30
2018-03-15T17:22:14.517Z,13.83
2018-03-15T17:24:42.025Z,11.67
2018-03-15T17:27:09.558Z,11.37
2018-03-15T17:29:37.846Z,8.37
2018-03-15T17:32:06.131Z,7.50
2018-03-15T17:34:34.404Z,9.77
2018-03-15T17:37:01.904Z,12.83
2018-03-15T17:39:29.416Z,14.50
2018-03-15T17:41:58.096Z,10.63
2018-03-15T17:44:26.002Z,11.90
2018-03-15T17:46:53.524Z,11.47
2018-03-15T17:49:21.046Z,11.10
2018-03-15T17:51:48.661Z,17.50
2018-03-15T17:54:16.944Z,16.17
2018-03-15T17:56:45.301Z,14.60
2018-03-15T17:59:12.829Z,13.33
2018-03-15T18:01:40.367Z,14.37
2018-03-15T18:04:08.647Z,15.60
2018-03-15T18:06:36.150Z,16.93
2018-03-15T18:09:03.658Z,18.50
2018-03-15T18:11:31.196Z,13.13
2018-03-15T18:13:58.727Z,17.30
2018-03-15T18:16:26.267Z,16.40
2018-03-15T18:18:53.793Z,17.90
2018-03-15T18:21:22.106Z,13.27
2018-03-15T18:23:49.615Z,14.00
2018-03-15T18:26:17.156Z,13.17
2018-03-15T18:28:44.650Z,16.30
2018-03-15T18:31:12.194Z,18.47
2018-03-15T18:33:39.692Z,14.60
2018-03-15T18:36:07.240Z,18.43
2018-03-15T18:38:34.765Z,15.97
2018-03-15T18:41:03.048Z,16.60
2018-03-15T18:43:31.310Z,15.40
2018-03-15T18:45:58.829Z,16.20
2018-03-15T18:48:27.163Z,15.07
2018-03-15T18:50:56.958Z,13.47
2018-03-15T18:53:24.476Z,14.30
2018-03-15T18:55:52.233Z,24.00
2018-03-15T18:58:19.777Z,14.37
2018-03-15T19:00:47.428Z,14.87
2018-03-15T19:03:15.714Z,15.10
2018-03-15T19:05:43.985Z,14.90
2018-03-15T19:08:11.513Z,15.83
2018-03-15T19:10:39.050Z,18.87
2018-03-15T19:13:07.385Z,13.63
2018-03-15T19:15:34.960Z,14.07
2018-03-15T19:18:02.491Z,20.27
2018-03-15T19:20:30.024Z,12.97
2018-03-15T19:22:58.658Z,16.17
2018-03-15T19:25:27.470Z,15.63
2018-03-15T19:27:55.148Z,20.40
2018-03-15T19:30:22.827Z,13.97
2018-03-15T19:32:52.514Z,19.20
2018-03-15T19:35:22.108Z,13.97
2018-03-15T19:37:49.792Z,15.07
2018-03-15T19:40:17.438Z,16.10
2018-03-15T19:42:44.973Z,18.17
2018-03-15T19:45:12.508Z,14.37
2018-03-15T19:47:40.118Z,17.90
2018-03-15T19:50:07.650Z,14.33
2018-03-15T19:52:35.264Z,15.20
2018-03-15T19:55:02.824Z,16.60
2018-03-15T19:57:30.348Z,15.97
2018-03-15T19:59:57.857Z,21.33
2018-03-15T20:02:26.180Z,18.10
2018-03-15T20:04:53.705Z,17.40
2018-03-15T20:07:22.050Z,16.13
2018-03-15T20:09:49.646Z,17.67
2018-03-15T20:12:17.198Z,15.37
2018-03-15T20:14:44.737Z,17.37
2018-03-15T20:17:12.295Z,17.37
2018-03-15T20:19:39.826Z,16.77
2018-03-15T20:22:07.374Z,16.93
2018-03-15T20:24:35.021Z,16.23
2018-03-15T20:27:02.531Z,17.60
2018-03-15T20:29:30.035Z,17.07
2018-03-15T20:31:57.600Z,14.47
2018-03-15T20:34:25.118Z,18.30
2018-03-15T20:36:52.646Z,17.37
2018-03-15T20:39:25.783Z,14.93
2018-03-15T20:41:53.316Z,14.13
2018-03-15T20:44:20.810Z,16.20
2018-03-15T20:46:54.790Z,21.30
2018-03-15T20:49:22.527Z,16.03
2018-03-15T20:51:50.121Z,16.40
2018-03-15T20:54:17.661Z,15.50
2018-03-15T20:56:45.264Z,16.57
2018-03-15T20:59:13.372Z,17.27
2018-03-15T21:01:41.128Z,18.87
2018-03-15T21:04:09.829Z,17.50
2018-03-15T21:06:37.630Z,16.03
2018-03-15T21:09:06.209Z,18.27
2018-03-15T21:11:33.850Z,18.33
2018-03-15T21:14:01.378Z,18.23
2018-03-15T21:16:28.878Z,13.03
2018-03-15T21:18:57.160Z,13.83
2018-03-15T21:21:33.432Z,13.40
2018-03-15T21:24:00.990Z,17.33
2018-03-15T21:26:28.494Z,19.10
2018-03-15T21:28:56.110Z,16.20
2018-03-15T21:31:23.645Z,14.33
2018-03-15T21:33:51.200Z,20.37
2018-03-15T21:36:19.486Z,16.97
2018-03-15T21:38:47.773Z,14.13
2018-03-15T21:41:16.081Z,18.30
2018-03-15T21:43:43.619Z,19.10
2018-03-15T21:46:11.163Z,20.07
2018-03-15T21:48:38.793Z,18.20
2018-03-15T21:51:06.296Z,18.20
2018-03-15T21:53:33.841Z,16.90
2018-03-15T21:56:01.374Z,16.77
2018-03-15T21:58:30.137Z,18.47
2018-03-15T22:00:57.641Z,17.93
2018-03-15T22:03:25.513Z,19.63
2018-03-15T22:05:53.056Z,17.50
2018-03-15T22:08:20.656Z,17.63
2018-03-15T22:10:48.216Z,19.37
2018-03-15T22:13:15.809Z,21.57
2018-03-15T22:15:43.377Z,22.90
2018-03-15T22:18:10.956Z,18.97
2018-03-15T22:20:38.522Z,20.20
2018-03-15T22:23:06.152Z,18.80
2018-03-15T22:25:33.798Z,18.17
2018-03-15T22:28:02.132Z,20.73
2018-03-15T22:30:29.696Z,20.43
2018-03-15T22:32:57.286Z,19.77
2018-03-15T22:35:24.852Z,20.60
2018-03-15T22:37:52.448Z,22.50
2018-03-15T22:40:20.047Z,18.13
2018-03-15T22:42:48.437Z,17.27
2018-03-15T22:45:16.770Z,21.93
2018-03-15T22:47:44.329Z,18.17
2018-03-15T22:50:11.930Z,21.07
2018-03-15T22:52:39.497Z,21.63
2018-03-15T22:55:07.106Z,21.40
2018-03-15T22:57:34.720Z,23.87
2018-03-15T23:00:02.376Z,23.13
2018-03-15T23:02:29.983Z,20.27
2018-03-15T23:04:57.535Z,19.73
2018-03-15T23:07:25.086Z,24.77
2018-03-15T23:09:52.663Z,22.67
2018-03-15T23:12:20.256Z,21.53
2018-03-15T23:14:47.815Z,22.97
2018-03-15T23:17:15.371Z,22.10
2018-03-15T23:19:43.724Z,24.93
2018-03-15T23:22:11.351Z,21.93
2018-03-15T23:24:38.920Z,23.67
2018-03-15T23:27:06.501Z,22.90
2018-03-15T23:29:34.114Z,20.97
2018-03-15T23:32:01.667Z,24.87
2018-03-15T23:34:29.292Z,27.17
2018-03-15T23:36:57.662Z,24.50
2018-03-15T23:39:25.279Z,24.50
2018-03-15T23:41:52.842Z,26.17
2018-03-15T23:44:20.402Z,21.57
2018-03-15T23:46:48.771Z,20.83
2018-03-15T23:49:16.312Z,24.20
2018-03-15T23:51:43.879Z,28.47
2018-03-15T23:54:11.457Z,23.93
2018-03-15T23:56:39.020Z,23.27
2018-03-15T23:59:06.594Z,24.80
